Time;durP1;ratioP1;P1;durP2;ratioP2;P2;SDS_P1;SDS_P2;PMS_P1;PMS_P2;Temp;Humidity;BMP_temperature;BMP_pressure;BME280_temperature;BME280_humidity;BME280_pressure;Samples;Min_cycle;Max_cycle;Signal;HPM_P1;HPM_P2
2021/09/17 00:00:39;;;;;;;;;;;;;;;20.22;57.93;100897.03;5115193;28;1976;-52
2021/09/17 00:03:04;;;;;;;;;;;;;;;20.21;57.94;100890.69;5115635;28;743;-55
2021/09/17 00:05:31;;;;;;;;;;;;;;;20.14;58.31;100891.03;5115481;28;751;-42
2021/09/17 00:07:56;;;;;;;;;;;;;;;20.17;58.08;100882.19;5115318;27;1024;-56
2021/09/17 00:10:22;;;;;;;;;;;;;;;20.04;58.34;100880.13;5115254;28;786;-57
2021/09/17 00:12:47;;;;;;;;;;;;;;;20.00;57.37;100879.06;5115636;28;1411;-41
2021/09/17 00:15:13;;;;;;;;;;;;;;;19.89;56.02;100872.84;5115520;28;1110;-52
2021/09/17 00:17:38;;;;;;;;;;;;;;;19.66;55.14;100879.97;5114882;28;818;-50
2021/09/17 00:20:04;;;;;;;;;;;;;;;19.44;54.71;100878.53;5115733;28;1909;-55
2021/09/17 00:22:30;;;;;;;;;;;;;;;19.34;54.17;100884.13;5117701;27;1709;-53
2021/09/17 00:24:55;;;;;;;;;;;;;;;19.21;53.73;100879.28;5114879;28;770;-57
2021/09/17 00:27:20;;;;;;;;;;;;;;;19.19;53.39;100881.53;5115541;28;830;-57
2021/09/17 00:29:46;;;;;;;;;;;;;;;18.96;53.28;100870.94;5115074;28;756;-46
2021/09/17 00:32:11;;;;;;;;;;;;;;;19.03;52.74;100876.13;5115096;28;762;-56
2021/09/17 00:34:37;;;;;;;;;;;;;;;18.97;52.40;100874.50;5115141;28;815;-57
2021/09/17 00:37:02;;;;;;;;;;;;;;;18.76;53.00;100865.53;5118437;27;1012;-56
2021/09/17 00:39:28;;;;;;;;;;;;;;;18.78;53.05;100860.59;5135462;27;1981;-54
2021/09/17 00:41:53;;;;;;;;;;;;;;;18.84;53.66;100859.44;5135848;28;775;-42
2021/09/17 00:44:23;;;;;;;;;;;;;;;18.98;54.81;100860.47;5134212;28;786;-47
2021/09/17 00:46:48;;;;;;;;;;;;;;;19.29;55.56;100854.69;5135395;28;802;-46
2021/09/17 00:49:14;;;;;;;;;;;;;;;19.46;56.57;100851.50;5136025;27;790;-42
2021/09/17 00:51:40;;;;;;;;;;;;;;;19.54;57.07;100849.22;5128333;27;1011;-52
2021/09/17 00:54:05;;;;;;;;;;;;;;;19.63;57.74;100847.47;5114602;28;738;-42
2021/09/17 00:56:33;;;;;;;;;;;;;;;19.62;58.43;100845.81;5118704;28;826;-44
2021/09/17 00:58:58;;;;;;;;;;;;;;;19.83;58.29;100846.44;5119252;28;818;-50
2021/09/17 01:01:24;;;;;;;;;;;;;;;19.88;58.22;100849.13;5118779;28;1905;-55
2021/09/17 01:03:52;;;;;;;;;;;;;;;19.93;58.42;100851.81;5119090;28;802;-42
2021/09/17 01:06:17;;;;;;;;;;;;;;;19.91;59.01;100847.69;5117762;27;938;-55
2021/09/17 01:08:43;;;;;;;;;;;;;;;19.93;59.30;100839.97;5118467;28;795;-42
2021/09/17 01:11:12;;;;;;;;;;;;;;;20.11;59.07;100838.38;5118919;28;826;-56
2021/09/17 01:13:37;;;;;;;;;;;;;;;20.18;58.90;100836.88;5118525;28;802;-57
2021/09/17 01:16:03;;;;;;;;;;;;;;;20.15;59.11;100831.94;5118360;28;1089;-57
2021/09/17 01:18:28;;;;;;;;;;;;;;;20.16;59.24;100822.56;5118738;28;779;-44
2021/09/17 01:20:55;;;;;;;;;;;;;;;20.13;59.29;100823.16;5120988;27;1909;-42
2021/09/17 01:23:23;;;;;;;;;;;;;;;20.30;59.01;100821.81;5138346;27;918;-43
2021/09/17 01:25:51;;;;;;;;;;;;;;;20.26;59.12;100820.75;5139108;27;534;-55
2021/09/17 01:28:20;;;;;;;;;;;;;;;20.31;59.08;100817.94;5139171;27;747;-50
2021/09/17 01:30:46;;;;;;;;;;;;;;;20.29;58.85;100814.66;5138687;27;755;-43
2021/09/17 01:33:11;;;;;;;;;;;;;;;20.14;58.24;100810.97;5138965;27;767;-46
2021/09/17 01:35:37;;;;;;;;;;;;;;;20.12;56.40;100804.94;5138277;27;842;-45
2021/09/17 01:38:02;;;;;;;;;;;;;;;19.74;55.93;100806.75;5132431;27;949;-58
2021/09/17 01:40:27;;;;;;;;;;;;;;;19.49;54.86;100800.44;5138848;27;1910;-59
2021/09/17 01:42:53;;;;;;;;;;;;;;;19.38;54.20;100805.25;5138525;27;822;-58
2021/09/17 01:45:18;;;;;;;;;;;;;;;19.34;53.64;100795.91;5138643;27;750;-57
2021/09/17 01:47:44;;;;;;;;;;;;;;;19.27;53.18;100798.19;5138369;27;767;-48
2021/09/17 01:50:10;;;;;;;;;;;;;;;19.05;53.10;100787.66;5138583;27;889;-42
2021/09/17 01:52:35;;;;;;;;;;;;;;;18.96;52.68;100785.53;5123155;27;957;-59
2021/09/17 01:55:01;;;;;;;;;;;;;;;18.97;52.64;100792.69;5117853;28;742;-58
2021/09/17 01:57:26;;;;;;;;;;;;;;;18.96;53.04;100787.47;5118259;28;822;-58
2021/09/17 01:59:52;;;;;;;;;;;;;;;19.14;55.24;100791.44;5117678;28;1964;-57
2021/09/17 02:02:17;;;;;;;;;;;;;;;19.41;57.04;100790.88;5117581;28;802;-41
2021/09/17 02:04:42;;;;;;;;;;;;;;;19.68;57.97;100789.47;5117411;28;728;-50
2021/09/17 02:07:08;;;;;;;;;;;;;;;19.90;58.67;100786.19;5116927;27;961;-41
2021/09/17 02:09:33;;;;;;;;;;;;;;;20.03;59.17;100784.63;5117880;28;807;-47
2021/09/17 02:11:59;;;;;;;;;;;;;;;20.08;59.80;100781.81;5117794;28;723;-59
2021/09/17 02:14:24;;;;;;;;;;;;;;;20.40;59.31;100780.25;5116813;28;803;-53
2021/09/17 02:16:50;;;;;;;;;;;;;;;20.37;60.06;100782.78;5117287;28;1047;-42
2021/09/17 02:19:15;;;;;;;;;;;;;;;20.43;59.85;100770.53;5117564;27;1988;-52
2021/09/17 02:21:40;;;;;;;;;;;;;;;20.18;58.96;100773.38;5119850;27;1589;-56
2021/09/17 02:24:06;;;;;;;;;;;;;;;19.81;56.99;100766.72;5116972;28;751;-58
2021/09/17 02:26:32;;;;;;;;;;;;;;;19.56;54.54;100769.72;5116023;28;1004;-51
2021/09/17 02:28:57;;;;;;;;;;;;;;;19.06;52.96;100772.78;5117162;28;818;-57
2021/09/17 02:31:23;;;;;;;;;;;;;;;18.69;51.60;100766.72;5116292;28;1327;-57
2021/09/17 02:33:48;;;;;;;;;;;;;;;18.46;50.83;100760.00;5116997;28;762;-50
2021/09/17 02:36:13;;;;;;;;;;;;;;;18.54;51.88;100756.66;5116827;27;965;-46
2021/09/17 02:38:39;;;;;;;;;;;;;;;18.97;54.52;100753.25;5133975;27;1161;-56
2021/09/17 02:41:04;;;;;;;;;;;;;;;19.40;56.63;100756.13;5137690;27;1910;-52
2021/09/17 02:43:30;;;;;;;;;;;;;;;19.61;58.38;100748.44;5137040;27;758;-46
2021/09/17 02:45:55;;;;;;;;;;;;;;;19.88;58.80;100751.72;5137312;27;822;-45
2021/09/17 02:48:21;;;;;;;;;;;;;;;19.92;59.93;100752.75;5137865;27;857;-51
2021/09/17 02:50:46;;;;;;;;;;;;;;;20.11;60.04;100756.34;5137224;27;750;-59
2021/09/17 02:53:12;;;;;;;;;;;;;;;20.23;60.37;100750.41;5117059;27;976;-49
2021/09/17 02:55:37;;;;;;;;;;;;;;;20.38;60.28;100751.28;5116526;28;824;-41
2021/09/17 02:58:05;;;;;;;;;;;;;;;20.47;60.53;100750.31;5116917;28;795;-56
2021/09/17 03:00:31;;;;;;;;;;;;;;;20.50;60.27;100755.22;5116922;28;1910;-51
2021/09/17 03:02:57;;;;;;;;;;;;;;;20.20;58.79;100745.47;5129255;27;1093;-50
2021/09/17 03:05:22;;;;;;;;;;;;;;;19.65;55.90;100745.91;5136369;27;877;-59
2021/09/17 03:07:48;;;;;;;;;;;;;;;19.38;52.38;100746.53;5120249;27;956;-59
2021/09/17 03:10:13;;;;;;;;;;;;;;;18.71;50.34;100741.66;5116612;28;826;-52
2021/09/17 03:12:40;;;;;;;;;;;;;;;18.24;49.18;100735.66;5116290;28;806;-58
2021/09/17 03:15:06;;;;;;;;;;;;;;;18.38;50.27;100739.41;5115443;28;1028;-60
2021/09/17 03:17:32;;;;;;;;;;;;;;;18.90;53.59;100725.22;5115478;28;770;-45
2021/09/17 03:19:58;;;;;;;;;;;;;;;19.11;56.19;100726.69;5116272;28;1902;-54
2021/09/17 03:22:23;;;;;;;;;;;;;;;19.45;57.55;100720.22;5119033;27;1489;-57
2021/09/17 03:24:49;;;;;;;;;;;;;;;19.55;58.96;100735.03;5116108;28;1150;-62
2021/09/17 03:27:14;;;;;;;;;;;;;;;19.80;59.27;100736.66;5116026;28;826;-56
2021/09/17 03:29:40;;;;;;;;;;;;;;;19.96;59.84;100734.50;5116001;28;830;-55
2021/09/17 03:32:05;;;;;;;;;;;;;;;20.19;59.73;100741.06;5116218;28;826;-62
2021/09/17 03:34:31;;;;;;;;;;;;;;;20.25;60.26;100736.31;5115965;28;937;-63
2021/09/17 03:36:56;;;;;;;;;;;;;;;20.43;60.19;100737.41;5117903;27;957;-60
2021/09/17 03:39:22;;;;;;;;;;;;;;;20.49;60.44;100736.19;5136664;27;1978;-60
2021/09/17 03:41:47;;;;;;;;;;;;;;;20.52;60.53;100747.47;5136528;27;786;-59
2021/09/17 03:44:13;;;;;;;;;;;;;;;20.59;60.15;100747.06;5136176;27;719;-47
2021/09/17 03:46:39;;;;;;;;;;;;;;;20.40;59.60;100741.59;5135990;27;763;-54
2021/09/17 03:49:04;;;;;;;;;;;;;;;20.00;57.19;100741.06;5135115;27;835;-53
2021/09/17 03:51:29;;;;;;;;;;;;;;;19.48;54.76;100736.19;5130551;27;984;-58
2021/09/17 03:53:55;;;;;;;;;;;;;;;18.94;52.26;100726.28;5114824;28;783;-58
2021/09/17 03:56:20;;;;;;;;;;;;;;;18.69;49.93;100728.16;5115118;28;755;-59
2021/09/17 03:58:46;;;;;;;;;;;;;;;18.24;49.05;100724.66;5115685;28;755;-59
2021/09/17 04:01:11;;;;;;;;;;;;;;;18.23;49.85;100728.50;5115687;28;1967;-50
2021/09/17 04:03:37;;;;;;;;;;;;;;;18.62;53.90;100731.25;5133974;27;1049;-58
2021/09/17 04:06:02;;;;;;;;;;;;;;;19.06;55.90;100737.75;5134260;27;945;-65
2021/09/17 04:08:27;;;;;;;;;;;;;;;19.32;57.77;100731.94;5115498;28;754;-61
2021/09/17 04:10:53;;;;;;;;;;;;;;;19.63;58.50;100731.59;5115564;28;799;-58
2021/09/17 04:13:18;;;;;;;;;;;;;;;19.71;59.90;100736.44;5115273;28;794;-59
2021/09/17 04:15:44;;;;;;;;;;;;;;;19.95;60.16;100739.22;5115327;28;1157;-56
2021/09/17 04:18:09;;;;;;;;;;;;;;;19.99;60.66;100733.91;5115185;28;798;-58
2021/09/17 04:20:35;;;;;;;;;;;;;;;20.06;61.02;100739.84;5115341;28;1917;-60
2021/09/17 04:23:00;;;;;;;;;;;;;;;20.12;61.32;100735.94;5117469;27;971;-60
2021/09/17 04:25:26;;;;;;;;;;;;;;;20.34;61.02;100737.25;5115407;28;790;-62
2021/09/17 04:27:52;;;;;;;;;;;;;;;20.49;60.84;100737.00;5114774;28;806;-51
2021/09/17 04:30:17;;;;;;;;;;;;;;;20.59;60.96;100730.47;5118936;28;762;-64
2021/09/17 04:32:43;;;;;;;;;;;;;;;20.73;60.33;100727.78;5119748;28;889;-65
2021/09/17 04:35:09;;;;;;;;;;;;;;;20.48;59.90;100729.00;5119467;28;807;-54
2021/09/17 04:37:59;;;;;;;;;;;;;;;20.09;58.37;100738.44;5126589;27;953;-51
2021/09/17 04:40:25;;;;;;;;;;;;;;;19.46;55.54;100732.91;5140235;27;1978;-52
2021/09/17 04:42:50;;;;;;;;;;;;;;;19.11;52.57;100726.69;5139462;27;778;-52
2021/09/17 04:45:16;;;;;;;;;;;;;;;18.65;50.19;100727.09;5140073;27;731;-57
2021/09/17 04:47:41;;;;;;;;;;;;;;;18.20;48.78;100729.09;5139428;27;774;-53
2021/09/17 04:50:07;;;;;;;;;;;;;;;18.20;48.67;100732.69;5139504;27;1008;-57
2021/09/17 04:52:33;;;;;;;;;;;;;;;18.68;52.25;100733.94;5125521;27;953;-63
2021/09/17 04:55:01;;;;;;;;;;;;;;;19.02;55.17;100727.63;5119178;28;778;-56
2021/09/17 04:57:27;;;;;;;;;;;;;;;19.27;57.14;100729.28;5137440;27;804;-57
2021/09/17 04:59:52;;;;;;;;;;;;;;;19.41;58.69;100721.94;5139024;27;1905;-57
2021/09/17 05:02:18;;;;;;;;;;;;;;;19.58;59.61;100724.19;5139690;27;743;-56
2021/09/17 05:04:43;;;;;;;;;;;;;;;19.76;60.02;100725.34;5138812;27;910;-56
2021/09/17 05:07:11;;;;;;;;;;;;;;;19.94;60.46;100725.72;5128314;27;957;-58
2021/09/17 05:09:37;;;;;;;;;;;;;;;20.02;60.92;100722.28;5118470;28;830;-56
2021/09/17 05:12:02;;;;;;;;;;;;;;;20.10;61.14;100713.31;5118547;28;846;-58
2021/09/17 05:14:27;;;;;;;;;;;;;;;20.22;61.35;100715.63;5118457;28;814;-56
2021/09/17 05:16:53;;;;;;;;;;;;;;;20.38;61.31;100723.66;5118609;28;1487;-57
2021/09/17 05:19:22;;;;;;;;;;;;;;;20.49;61.00;100725.13;5118087;28;735;-57
2021/09/17 05:21:48;;;;;;;;;;;;;;;20.46;60.95;100726.56;5121391;27;1652;-56
2021/09/17 05:24:14;;;;;;;;;;;;;;;20.15;59.68;100709.66;5118691;28;811;-59
2021/09/17 05:26:39;;;;;;;;;;;;;;;19.79;56.67;100716.50;5118143;28;818;-60
2021/09/17 05:29:04;;;;;;;;;;;;;;;19.42;53.73;100714.47;5118001;28;819;-56
2021/09/17 05:31:30;;;;;;;;;;;;;;;18.94;51.43;100707.84;5118646;28;905;-58
2021/09/17 05:33:55;;;;;;;;;;;;;;;18.52;49.45;100714.78;5118156;28;763;-56
2021/09/17 05:36:21;;;;;;;;;;;;;;;18.32;48.86;100706.72;5117965;27;965;-56
2021/09/17 05:38:46;;;;;;;;;;;;;;;18.47;52.26;100709.34;5136289;27;1062;-52
2021/09/17 05:41:13;;;;;;;;;;;;;;;18.98;55.14;100716.34;5137226;27;1972;-58
2021/09/17 05:43:39;;;;;;;;;;;;;;;19.32;57.23;100709.91;5139268;27;867;-58
2021/09/17 05:46:04;;;;;;;;;;;;;;;19.52;58.67;100724.56;5139006;27;862;-57
2021/09/17 05:48:29;;;;;;;;;;;;;;;19.75;59.20;100715.44;5138267;27;814;-58
2021/09/17 05:50:55;;;;;;;;;;;;;;;19.83;59.98;100720.31;5137717;27;937;-56
2021/09/17 05:53:20;;;;;;;;;;;;;;;19.96;60.59;100712.41;5117850;27;1000;-56
2021/09/17 05:55:46;;;;;;;;;;;;;;;20.29;60.12;100720.78;5117853;28;755;-56
2021/09/17 05:58:11;;;;;;;;;;;;;;;20.21;61.03;100719.50;5117992;28;786;-59
2021/09/17 06:00:37;;;;;;;;;;;;;;;20.32;60.93;100720.16;5116105;28;1993;-57
2021/09/17 06:03:02;;;;;;;;;;;;;;;20.50;60.78;100721.25;5117748;28;739;-58
2021/09/17 06:05:27;;;;;;;;;;;;;;;20.60;60.79;100725.78;5117312;28;830;-56
2021/09/17 06:07:56;;;;;;;;;;;;;;;20.52;60.32;100719.84;5117285;27;961;-58
2021/09/17 06:10:22;;;;;;;;;;;;;;;20.23;58.51;100722.78;5117498;28;1004;-59
2021/09/17 06:12:47;;;;;;;;;;;;;;;19.80;55.88;100720.09;5117713;28;742;-57
2021/09/17 06:15:13;;;;;;;;;;;;;;;19.36;53.05;100727.50;5117560;28;1167;-57
2021/09/17 06:17:40;;;;;;;;;;;;;;;18.87;50.94;100709.25;5117357;28;853;-56
2021/09/17 06:20:06;;;;;;;;;;;;;;;18.47;49.15;100717.63;5117001;28;1898;-54
2021/09/17 06:22:31;;;;;;;;;;;;;;;18.24;48.74;100720.00;5132762;27;1573;-54
2021/09/17 06:24:57;;;;;;;;;;;;;;;18.56;52.18;100709.53;5137727;27;806;-57
2021/09/17 06:27:22;;;;;;;;;;;;;;;19.03;55.45;100707.19;5137964;27;897;-58
2021/09/17 06:29:47;;;;;;;;;;;;;;;19.35;57.25;100719.53;5137619;27;730;-54
2021/09/17 06:32:13;;;;;;;;;;;;;;;19.53;58.84;100715.16;5137523;27;782;-58
2021/09/17 06:34:38;;;;;;;;;;;;;;;19.74;59.46;100716.56;5137454;27;742;-58
2021/09/17 06:37:04;;;;;;;;;;;;;;;19.94;59.89;100720.19;5131062;27;944;-58
2021/09/17 06:39:31;;;;;;;;;;;;;;;20.08;60.25;100715.56;5137861;27;1914;-54
2021/09/17 06:41:59;;;;;;;;;;;;;;;20.25;60.46;100717.78;5137588;27;810;-55
2021/09/17 06:44:27;;;;;;;;;;;;;;;20.25;61.16;100714.22;5137311;27;824;-47
2021/09/17 06:46:52;;;;;;;;;;;;;;;20.43;60.92;100721.63;5137490;27;810;-55
2021/09/17 06:49:18;;;;;;;;;;;;;;;20.48;61.20;100713.28;5137353;27;814;-56
2021/09/17 06:51:43;;;;;;;;;;;;;;;20.46;61.50;100714.69;5129775;27;1023;-53
2021/09/17 06:54:09;;;;;;;;;;;;;;;20.28;59.76;100708.88;5116704;28;787;-49
2021/09/17 06:56:34;;;;;;;;;;;;;;;19.86;56.68;100693.25;5116296;28;751;-52
2021/09/17 06:59:00;;;;;;;;;;;;;;;19.52;53.61;100691.47;5116929;28;767;-55
2021/09/17 07:01:25;;;;;;;;;;;;;;;18.89;51.61;100701.56;5116500;27;1977;-57
2021/09/17 07:03:51;;;;;;;;;;;;;;;18.59;49.69;100687.78;5116371;28;744;-56
2021/09/17 07:06:17;;;;;;;;;;;;;;;18.26;49.00;100694.94;5116269;27;992;-52
2021/09/17 07:08:42;;;;;;;;;;;;;;;18.32;50.27;100693.78;5116357;27;806;-56
2021/09/17 07:11:08;;;;;;;;;;;;;;;18.87;54.10;100701.00;5116138;28;759;-56
2021/09/17 07:13:33;;;;;;;;;;;;;;;19.26;56.38;100695.34;5116108;28;743;-54
2021/09/17 07:15:58;;;;;;;;;;;;;;;19.47;58.27;100706.97;5116360;28;1034;-52
2021/09/17 07:18:24;;;;;;;;;;;;;;;19.73;59.21;100698.34;5116206;28;858;-52
2021/09/17 07:20:50;;;;;;;;;;;;;;;19.86;59.90;100696.00;5118379;27;1975;-53
2021/09/17 07:23:16;;;;;;;;;;;;;;;20.02;60.55;100696.59;5116803;27;928;-54
2021/09/17 07:25:41;;;;;;;;;;;;;;;20.04;61.26;100697.94;5116356;28;791;-49
2021/09/17 07:28:07;;;;;;;;;;;;;;;20.23;61.39;100691.59;5116144;28;826;-57
2021/09/17 07:30:32;;;;;;;;;;;;;;;20.42;61.18;100697.09;5116039;28;775;-52
2021/09/17 07:32:58;;;;;;;;;;;;;;;20.49;61.38;100686.47;5115829;28;770;-57
2021/09/17 07:35:23;;;;;;;;;;;;;;;20.46;61.18;100690.66;5115773;28;786;-55
2021/09/17 07:37:49;;;;;;;;;;;;;;;20.14;58.95;100692.25;5125810;27;957;-57
2021/09/17 07:40:14;;;;;;;;;;;;;;;19.69;56.34;100697.31;5136135;27;1909;-56
2021/09/17 07:42:43;;;;;;;;;;;;;;;19.30;53.35;100690.09;5136283;27;809;-60
2021/09/17 07:45:09;;;;;;;;;;;;;;;18.84;51.33;100685.06;5135427;27;802;-47
2021/09/17 07:47:34;;;;;;;;;;;;;;;18.46;49.98;100693.94;5136160;27;770;-49
2021/09/17 07:50:00;;;;;;;;;;;;;;;18.36;49.51;100694.03;5134994;27;844;-56
2021/09/17 07:52:25;;;;;;;;;;;;;;;18.24;50.96;100694.38;5123181;27;960;-56
2021/09/17 07:54:51;;;;;;;;;;;;;;;18.93;54.56;100692.44;5115210;28;846;-58
2021/09/17 07:57:16;;;;;;;;;;;;;;;19.31;57.33;100692.53;5115895;28;826;-54
2021/09/17 07:59:42;;;;;;;;;;;;;;;19.58;59.52;100687.53;5115698;28;1914;-58
2021/09/17 08:02:07;;;;;;;;;;;;;;;19.93;60.16;100696.47;5115882;28;873;-56
2021/09/17 08:04:33;;;;;;;;;;;;;;;19.98;61.29;100693.63;5115471;28;816;-58
2021/09/17 08:06:58;;;;;;;;;;;;;;;20.24;60.98;100691.28;5115241;27;929;-57
2021/09/17 08:09:24;;;;;;;;;;;;;;;20.47;60.79;100703.34;5115183;28;795;-55
2021/09/17 08:11:49;;;;;;;;;;;;;;;20.45;61.33;100690.97;5115544;28;846;-58
2021/09/17 08:14:14;;;;;;;;;;;;;;;20.52;61.30;100675.66;5115247;28;772;-58
2021/09/17 08:16:40;;;;;;;;;;;;;;;20.57;60.45;100665.63;5115132;28;1160;-58
2021/09/17 08:19:05;;;;;;;;;;;;;;;20.10;58.59;100669.13;5115535;28;835;-58
2021/09/17 08:21:31;;;;;;;;;;;;;;;19.61;55.97;100667.63;5117546;27;1897;-58
2021/09/17 08:23:56;;;;;;;;;;;;;;;19.12;53.52;100662.16;5115201;28;751;-58
2021/09/17 08:26:22;;;;;;;;;;;;;;;18.84;50.97;100654.75;5115229;28;747;-59
2021/09/17 08:28:47;;;;;;;;;;;;;;;18.49;49.22;100662.25;5116018;28;814;-57
2021/09/17 08:31:13;;;;;;;;;;;;;;;18.15;48.50;100652.09;5114942;28;803;-57
2021/09/17 08:33:40;;;;;;;;;;;;;;;18.32;49.65;100657.16;5115343;28;791;-58
2021/09/17 08:36:06;;;;;;;;;;;;;;;18.79;54.09;100652.88;5117170;27;1133;-56
2021/09/17 08:38:32;;;;;;;;;;;;;;;19.20;57.15;100648.88;5127988;28;1310;-58
2021/09/17 08:40:59;;;;;;;;;;;;;;;19.54;59.14;100653.38;5124384;27;1909;-50
2021/09/17 08:43:25;;;;;;;;;;;;;;;19.74;60.56;100655.88;5127012;27;1167;-57
2021/09/17 08:45:51;;;;;;;;;;;;;;;20.14;60.72;100650.84;5124239;27;1242;-58
2021/09/17 08:48:25;;;;;;;;;;;;;;;20.20;61.39;100657.09;5124615;28;1152;-53
2021/09/17 08:50:51;;;;;;;;;;;;;;;20.41;61.52;100648.50;5124174;27;1321;-57
2021/09/17 08:53:16;;;;;;;;;;;;;;;20.50;61.58;100643.91;5125532;27;1337;-57
2021/09/17 08:55:46;;;;;;;;;;;;;;;20.46;61.11;100642.88;5124677;28;1431;-56
2021/09/17 08:58:11;;;;;;;;;;;;;;;20.09;59.26;100639.91;5126875;27;1104;-55
2021/09/17 09:00:36;;;;;;;;;;;;;;;19.69;56.49;100625.59;5132051;27;1906;-55
2021/09/17 09:03:02;;;;;;;;;;;;;;;19.32;53.64;100618.91;5123990;28;1375;-57
2021/09/17 09:05:27;;;;;;;;;;;;;;;18.92;51.59;100623.84;5118625;28;1289;-58
2021/09/17 09:07:53;;;;;;;;;;;;;;;18.63;50.01;100619.16;5114637;27;953;-56
2021/09/17 09:10:18;;;;;;;;;;;;;;;18.60;49.99;100623.31;5115025;28;831;-54
2021/09/17 09:12:48;;;;;;;;;;;;;;;18.55;49.98;100609.59;5114861;28;775;-48
2021/09/17 09:15:18;;;;;;;;;;;;;;;18.49;50.24;100604.44;5122947;27;1156;-49
2021/09/17 09:17:43;;;;;;;;;;;;;;;18.53;50.57;100608.25;5131144;27;1282;-54
2021/09/17 09:20:24;;;;;;;;;;;;;;;18.26;50.17;100606.84;5137106;27;1909;-57
2021/09/17 09:23:02;;;;;;;;;;;;;;;18.17;50.90;100603.06;5121058;27;1569;-58
2021/09/17 09:25:28;;;;;;;;;;;;;;;18.68;55.01;100599.81;5118427;28;802;-59
2021/09/17 09:27:54;;;;;;;;;;;;;;;19.00;57.33;100598.41;5119085;28;826;-58
2021/09/17 09:30:28;;;;;;;;;;;;;;;19.31;59.00;100592.47;5116668;28;778;-58
2021/09/17 09:32:53;;;;;;;;;;;;;;;19.49;60.17;100593.63;5118283;28;810;-58
2021/09/17 09:35:19;;;;;;;;;;;;;;;19.76;60.61;100595.69;5118728;28;759;-57
2021/09/17 09:37:44;;;;;;;;;;;;;;;19.94;60.91;100588.53;5127136;27;1007;-56
2021/09/17 09:40:12;;;;;;;;;;;;;;;20.06;61.52;100588.03;5136750;27;1965;-57
2021/09/17 09:42:44;;;;;;;;;;;;;;;20.28;61.50;100581.06;5138654;27;806;-57
2021/09/17 09:45:20;;;;;;;;;;;;;;;20.32;62.08;100577.38;5138542;27;841;-54
2021/09/17 09:47:46;;;;;;;;;;;;;;;20.45;62.09;100580.47;5139107;27;758;-56
2021/09/17 09:50:16;;;;;;;;;;;;;;;20.50;61.91;100578.44;5138768;27;692;-57
2021/09/17 09:52:42;;;;;;;;;;;;;;;20.35;60.97;100575.97;5122528;27;1015;-59
2021/09/17 09:55:08;;;;;;;;;;;;;;;19.79;58.45;100570.28;5118022;28;786;-58
2021/09/17 09:57:33;;;;;;;;;;;;;;;19.48;55.36;100569.91;5118243;28;802;-57
2021/09/17 09:59:59;;;;;;;;;;;;;;;19.08;53.07;100572.94;5117719;28;1918;-59
2021/09/17 10:02:25;;;;;;;;;;;;;;;18.68;50.85;100572.28;5118795;28;746;-52
2021/09/17 10:04:52;;;;;;;;;;;;;;;18.38;49.56;100568.72;5117712;28;1144;-56
2021/09/17 10:07:17;;;;;;;;;;;;;;;18.23;48.78;100557.88;5128541;27;1004;-53
2021/09/17 10:09:43;;;;;;;;;;;;;;;18.39;50.91;100548.34;5137867;27;754;-53
2021/09/17 10:12:10;;;;;;;;;;;;;;;19.00;55.30;100565.31;5138133;27;770;-54
2021/09/17 10:14:35;;;;;;;;;;;;;;;19.40;58.44;100557.59;5138292;27;806;-53
2021/09/17 10:17:22;;;;;;;;;;;;;;;19.72;60.04;100552.44;5137984;27;1058;-53
2021/09/17 10:19:48;;;;;;;;;;;;;;;20.04;60.70;100553.63;5137049;27;1905;-53
2021/09/17 10:22:30;;;;;;;;;;;;;;;20.30;61.07;100556.72;5122587;27;1259;-56
2021/09/17 10:25:05;;;;;;;;;;;;;;;20.42;61.53;100554.28;5117851;28;760;-56
2021/09/17 10:27:30;;;;;;;;;;;;;;;20.54;61.94;100552.97;5117221;28;750;-49
2021/09/17 10:29:57;;;;;;;;;;;;;;;20.60;61.73;100544.28;5117302;28;779;-56
2021/09/17 10:32:26;;;;;;;;;;;;;;;20.41;60.17;100526.97;5116782;28;831;-51
2021/09/17 10:35:14;;;;;;;;;;;;;;;19.91;57.21;100517.41;5116918;28;755;-56
2021/09/17 10:37:49;;;;;;;;;;;;;;;19.42;54.01;100527.81;5114329;27;1093;-55
2021/09/17 10:40:15;;;;;;;;;;;;;;;19.00;51.53;100521.25;5136529;27;1918;-54
2021/09/17 10:42:59;;;;;;;;;;;;;;;18.64;49.44;100514.19;5136047;27;759;-59
2021/09/17 10:45:24;;;;;;;;;;;;;;;18.27;48.26;100506.63;5137238;27;862;-58
2021/09/17 10:47:54;;;;;;;;;;;;;;;18.36;49.62;100507.66;5137540;27;795;-53
2021/09/17 10:50:21;;;;;;;;;;;;;;;18.88;54.36;100507.06;5137801;27;845;-57
2021/09/17 10:52:48;;;;;;;;;;;;;;;19.38;57.13;100512.16;5120843;27;1008;-51
2021/09/17 10:55:32;;;;;;;;;;;;;;;19.67;59.00;100509.22;5116962;28;759;-54
2021/09/17 10:58:16;;;;;;;;;;;;;;;19.95;60.33;100506.56;5117071;28;787;-49
2021/09/17 11:00:54;;;;;;;;;;;;;;;20.23;60.80;100506.59;5116370;28;1980;-51
2021/09/17 11:03:38;;;;;;;;;;;;;;;20.37;60.95;100504.69;5116433;28;862;-48
2021/09/17 11:06:18;;;;;;;;;;;;;;;20.46;61.05;100505.59;5116603;27;995;-53
2021/09/17 11:08:47;;;;;;;;;;;;;;;20.41;61.12;100496.59;5116593;28;798;-50
2021/09/17 11:11:41;;;;;;;;;;;;;;;20.23;59.99;100485.34;5116677;28;755;-54
2021/09/17 11:14:19;;;;;;;;;;;;;;;19.72;56.69;100477.97;5114778;27;1153;-46
2021/09/17 11:16:45;;;;;;;;;;;;;;;19.29;54.10;100462.38;5116543;28;1023;-51
2021/09/17 11:19:13;;;;;;;;;;;;;;;18.89;51.66;100464.63;5116492;28;767;-54
2021/09/17 11:21:42;;;;;;;;;;;;;;;18.60;49.88;100462.78;5118359;27;1976;-54
2021/09/17 11:24:17;;;;;;;;;;;;;;;18.37;49.14;100469.91;5116313;28;890;-48
2021/09/17 11:26:46;;;;;;;;;;;;;;;18.59;52.45;100472.13;5116572;28;775;-53
2021/09/17 11:29:12;;;;;;;;;;;;;;;19.17;56.04;100475.78;5116096;28;838;-53
2021/09/17 11:31:42;;;;;;;;;;;;;;;19.57;58.18;100474.34;5116268;28;827;-55
2021/09/17 11:34:08;;;;;;;;;;;;;;;19.82;60.04;100475.06;5115791;28;791;-53
2021/09/17 11:36:36;;;;;;;;;;;;;;;20.03;60.57;100458.94;5115537;27;950;-49
2021/09/17 11:39:12;;;;;;;;;;;;;;;20.27;61.08;100467.06;5135794;27;1090;-54
2021/09/17 11:41:38;;;;;;;;;;;;;;;20.50;61.18;100467.16;5136410;27;1906;-51
2021/09/17 11:44:04;;;;;;;;;;;;;;;20.56;61.48;100463.16;5135839;27;834;-51
2021/09/17 11:46:29;;;;;;;;;;;;;;;20.51;61.46;100464.06;5136669;27;771;-53
2021/09/17 11:48:55;;;;;;;;;;;;;;;20.44;59.96;100449.88;5135317;27;778;-54
2021/09/17 11:51:20;;;;;;;;;;;;;;;20.08;57.38;100444.25;5132125;27;980;-54
2021/09/17 11:53:46;;;;;;;;;;;;;;;19.63;54.91;100450.25;5115602;28;811;-55
2021/09/17 11:56:12;;;;;;;;;;;;;;;19.28;52.57;100446.97;5116078;28;806;-53
2021/09/17 11:58:43;;;;;;;;;;;;;;;18.74;51.21;100444.41;5115655;28;763;-54
2021/09/17 12:01:35;;;;;;;;;;;;;;;18.52;49.01;100439.44;5115650;28;1941;-54
2021/09/17 12:04:01;;;;;;;;;;;;;;;18.22;48.29;100435.97;5112842;28;1705;-51
2021/09/17 12:06:26;;;;;;;;;;;;;;;18.23;49.91;100432.09;5115723;27;949;-55
2021/09/17 12:08:54;;;;;;;;;;;;;;;18.79;54.48;100419.53;5114974;28;764;-53
2021/09/17 12:11:22;;;;;;;;;;;;;;;19.29;57.27;100429.28;5113999;28;981;-53
2021/09/17 12:13:57;;;;;;;;;;;;;;;19.71;58.90;100418.41;5113847;28;800;-54
2021/09/17 12:16:22;;;;;;;;;;;;;;;19.95;60.40;100407.22;5115172;28;1038;-55
2021/09/17 12:19:01;;;;;;;;;;;;;;;20.20;61.16;100407.84;5115684;28;826;-54
2021/09/17 12:21:26;;;;;;;;;;;;;;;20.40;61.19;100412.94;5117421;27;1918;-53
2021/09/17 12:23:55;;;;;;;;;;;;;;;20.68;61.32;100418.47;5115324;28;771;-55
2021/09/17 12:26:23;;;;;;;;;;;;;;;20.75;61.42;100421.63;5114419;28;770;-54
2021/09/17 12:28:52;;;;;;;;;;;;;;;20.69;60.35;100420.06;5116124;28;798;-54
2021/09/17 12:31:47;;;;;;;;;;;;;;;20.12;58.66;100418.47;5115572;28;774;-52
2021/09/17 12:34:14;;;;;;;;;;;;;;;19.58;55.73;100420.81;5106121;28;1367;-54
2021/09/17 12:36:40;;;;;;;;;;;;;;;19.34;52.95;100420.94;5114805;27;957;-56
2021/09/17 12:39:05;;;;;;;;;;;;;;;18.85;51.01;100414.78;5136049;27;766;-54
2021/09/17 12:41:31;;;;;;;;;;;;;;;18.55;49.30;100419.59;5136121;27;1909;-56
2021/09/17 12:44:10;;;;;;;;;;;;;;;18.32;49.73;100410.25;5135077;27;783;-54
2021/09/17 12:46:39;;;;;;;;;;;;;;;18.70;53.55;100407.53;5135455;28;779;-52
2021/09/17 12:49:05;;;;;;;;;;;;;;;19.27;57.14;100412.25;5136128;27;969;-56
2021/09/17 12:51:30;;;;;;;;;;;;;;;19.72;58.85;100409.81;5133582;27;1023;-52